Time;durP1;ratioP1;P1;durP2;ratioP2;P2;SDS_P1;SDS_P2;PMS_P1;PMS_P2;Temp;Humidity;BMP_temperature;BMP_pressure;BME280_temperature;BME280_humidity;BME280_pressure;Samples;Min_cycle;Max_cycle;Signal;HPM_P1;HPM_P2
2021/03/03 00:01:02;;;;;;;19.37;12.90;;;;;;;;;;5105271;28;20430;-77
2021/03/03 00:03:28;;;;;;;23.53;14.83;;;;;;;;;;5112696;28;20467;-80
2021/03/03 00:05:54;;;;;;;26.07;13.77;;;;;;;;;;5102919;28;21026;-77
2021/03/03 00:08:20;;;;;;;18.10;11.20;;;;;;;;;;5105706;28;20421;-77
2021/03/03 00:10:46;;;;;;;18.20;12.57;;;;;;;;;;5110684;28;20443;-76
2021/03/03 00:13:12;;;;;;;18.10;11.27;;;;;;;;;;5115969;28;20424;-77
2021/03/03 00:15:38;;;;;;;20.97;12.37;;;;;;;;;;5112594;28;20459;-76
2021/03/03 00:18:04;;;;;;;21.03;13.57;;;;;;;;;;5099786;28;20531;-75
2021/03/03 00:20:30;;;;;;;18.30;12.70;;;;;;;;;;5093257;28;20426;-75
2021/03/03 00:22:56;;;;;;;24.37;14.00;;;;;;;;;;5096804;28;20470;-78
2021/03/03 00:25:22;;;;;;;19.83;13.37;;;;;;;;;;5107143;28;20436;-78
2021/03/03 00:27:48;;;;;;;24.50;13.03;;;;;;;;;;5100266;28;20429;-77
2021/03/03 00:30:14;;;;;;;22.70;11.03;;;;;;;;;;5098023;28;20489;-78
2021/03/03 00:32:44;;;;;;;20.40;13.30;;;;;;;;;;5103226;28;20504;-75
2021/03/03 00:35:10;;;;;;;18.30;12.93;;;;;;;;;;5109428;28;20519;-76
2021/03/03 00:37:36;;;;;;;19.37;14.60;;;;;;;;;;5099887;28;20187;-77
2021/03/03 00:40:04;;;;;;;17.57;12.87;;;;;;;;;;5111054;28;20423;-76
2021/03/03 00:42:29;;;;;;;20.17;13.60;;;;;;;;;;5111507;28;20432;-78
2021/03/03 00:44:55;;;;;;;19.00;11.43;;;;;;;;;;5111945;28;20699;-79
2021/03/03 00:47:21;;;;;;;19.83;12.13;;;;;;;;;;5095370;28;20477;-76
2021/03/03 00:49:47;;;;;;;15.83;11.10;;;;;;;;;;5097108;28;20432;-76
2021/03/03 00:52:16;;;;;;;18.23;13.00;;;;;;;;;;5102163;28;20933;-75
2021/03/03 00:54:43;;;;;;;17.63;11.80;;;;;;;;;;5094003;28;20495;-77
2021/03/03 00:57:09;;;;;;;25.20;13.47;;;;;;;;;;5115744;28;20428;-76
2021/03/03 00:59:35;;;;;;;16.93;10.83;;;;;;;;;;5128034;28;20438;-75
2021/03/03 01:02:01;;;;;;;15.90;10.50;;;;;;;;;;5119472;28;20439;-78
2021/03/03 01:04:30;;;;;;;19.20;12.37;;;;;;;;;;5113417;28;20973;-76
2021/03/03 01:06:56;;;;;;;16.43;11.90;;;;;;;;;;5121896;28;20908;-78
2021/03/03 01:09:23;;;;;;;19.48;12.32;;;;;;;;;;5131465;28;20514;-78
2021/03/03 01:11:49;;;;;;;18.73;13.45;;;;;;;;;;5133720;28;20166;-80
2021/03/03 01:14:15;;;;;;;20.83;13.13;;;;;;;;;;5129969;28;20680;-77
2021/03/03 01:16:41;;;;;;;18.13;13.27;;;;;;;;;;5111796;28;20487;-75
2021/03/03 01:19:07;;;;;;;20.47;11.20;;;;;;;;;;5126036;28;20436;-76
2021/03/03 01:21:33;;;;;;;26.00;13.17;;;;;;;;;;5114346;28;20980;-77
2021/03/03 01:23:59;;;;;;;19.90;12.70;;;;;;;;;;5128362;28;20553;-77
2021/03/03 01:26:25;;;;;;;21.47;12.13;;;;;;;;;;5125799;28;20434;-77
2021/03/03 01:28:51;;;;;;;22.27;12.37;;;;;;;;;;5123772;28;20446;-75
2021/03/03 01:31:17;;;;;;;18.27;12.10;;;;;;;;;;5115962;28;20439;-76
2021/03/03 01:33:43;;;;;;;21.67;12.80;;;;;;;;;;5131567;28;20440;-76
2021/03/03 01:36:09;;;;;;;15.67;11.07;;;;;;;;;;5124965;28;20455;-74
2021/03/03 01:38:35;;;;;;;16.20;10.97;;;;;;;;;;5130746;28;20514;-76
2021/03/03 01:41:01;;;;;;;20.93;12.07;;;;;;;;;;5126351;28;20760;-77
2021/03/03 01:43:31;;;;;;;18.27;11.57;;;;;;;;;;5106376;28;20486;-76
2021/03/03 01:45:57;;;;;;;21.37;13.83;;;;;;;;;;5127797;28;20438;-75
2021/03/03 01:48:23;;;;;;;20.17;12.30;;;;;;;;;;5118749;28;20531;-77
2021/03/03 01:50:49;;;;;;;19.07;12.23;;;;;;;;;;5118842;28;20419;-76
2021/03/03 01:53:15;;;;;;;18.53;13.00;;;;;;;;;;5125718;28;20952;-77
2021/03/03 01:55:41;;;;;;;19.17;13.13;;;;;;;;;;5117115;28;20432;-78
2021/03/03 01:58:07;;;;;;;19.40;11.38;;;;;;;;;;5130428;28;20431;-75
2021/03/03 02:00:33;;;;;;;18.73;12.53;;;;;;;;;;5132156;27;20306;-76
2021/03/03 02:02:59;;;;;;;22.07;13.80;;;;;;;;;;5138034;27;20466;-76
2021/03/03 02:05:25;;;;;;;18.13;13.40;;;;;;;;;;5108306;27;20443;-75
2021/03/03 02:08:08;;;;;;;19.30;12.03;;;;;;;;;;5133227;27;20424;-76
2021/03/03 02:10:40;;;;;;;20.67;12.15;;;;;;;;;;5119775;27;20427;-76
2021/03/03 02:13:10;;;;;;;19.40;12.73;;;;;;;;;;5120699;27;20230;-75
2021/03/03 02:15:38;;;;;;;18.80;13.07;;;;;;;;;;5122509;27;20433;-77
2021/03/03 02:18:04;;;;;;;16.33;11.40;;;;;;;;;;5134283;27;20911;-76
2021/03/03 02:20:32;;;;;;;18.40;12.20;;;;;;;;;;5117896;27;20427;-77
2021/03/03 02:23:07;;;;;;;17.70;12.30;;;;;;;;;;5118550;27;20464;-75
2021/03/03 02:25:36;;;;;;;22.98;12.30;;;;;;;;;;5131137;27;20465;-76
2021/03/03 02:28:08;;;;;;;20.75;12.48;;;;;;;;;;5115943;28;20179;-76
2021/03/03 02:30:42;;;;;;;16.27;11.50;;;;;;;;;;5124315;27;20628;-77
2021/03/03 02:33:10;;;;;;;19.80;12.47;;;;;;;;;;5116138;27;20188;-76
2021/03/03 02:35:36;;;;;;;21.87;12.20;;;;;;;;;;5131804;27;20427;-77
2021/03/03 02:38:04;;;;;;;16.83;11.93;;;;;;;;;;5120144;27;20428;-76
2021/03/03 02:40:30;;;;;;;18.45;11.95;;;;;;;;;;5117472;27;20227;-75
2021/03/03 02:42:57;;;;;;;20.50;12.60;;;;;;;;;;5135871;27;20544;-75
2021/03/03 02:45:24;;;;;;;15.80;12.27;;;;;;;;;;5119561;27;20870;-76
2021/03/03 02:47:51;;;;;;;16.73;11.27;;;;;;;;;;5115204;28;20170;-76
2021/03/03 02:50:17;;;;;;;17.17;11.05;;;;;;;;;;5129340;27;20195;-77
2021/03/03 02:52:53;;;;;;;15.90;11.77;;;;;;;;;;5118639;27;20232;-78
2021/03/03 02:55:20;;;;;;;23.70;13.77;;;;;;;;;;5115992;27;20676;-77
2021/03/03 02:57:46;;;;;;;21.77;11.00;;;;;;;;;;5126745;27;20558;-76
2021/03/03 03:00:14;;;;;;;20.42;12.25;;;;;;;;;;5127285;27;20838;-76
2021/03/03 03:02:41;;;;;;;24.85;12.02;;;;;;;;;;5119951;27;20189;-76
2021/03/03 03:05:08;;;;;;;17.15;12.38;;;;;;;;;;5120055;27;20185;-76
2021/03/03 03:07:42;;;;;;;17.02;12.73;;;;;;;;;;5118680;27;20175;-75
2021/03/03 03:10:10;;;;;;;16.58;11.93;;;;;;;;;;5098761;28;20192;-76
2021/03/03 03:12:37;;;;;;;20.55;12.10;;;;;;;;;;5116420;27;20206;-76
2021/03/03 03:15:04;;;;;;;23.60;11.75;;;;;;;;;;5130630;27;20169;-79
2021/03/03 03:17:30;;;;;;;19.90;14.02;;;;;;;;;;5120470;27;20179;-76
2021/03/03 03:19:57;;;;;;;16.60;11.13;;;;;;;;;;5116103;27;20197;-78
2021/03/03 03:22:27;;;;;;;16.98;11.80;;;;;;;;;;5117616;27;20181;-76
2021/03/03 03:24:59;;;;;;;23.33;11.85;;;;;;;;;;5121566;27;20206;-76
2021/03/03 03:27:26;;;;;;;22.92;12.48;;;;;;;;;;5115302;27;20168;-76
2021/03/03 03:29:53;;;;;;;24.58;13.25;;;;;;;;;;5130718;27;20184;-77
2021/03/03 03:32:19;;;;;;;19.95;13.38;;;;;;;;;;5123342;27;20181;-77
2021/03/03 03:34:45;;;;;;;21.40;12.32;;;;;;;;;;5121414;27;20276;-75
2021/03/03 03:37:13;;;;;;;19.45;12.23;;;;;;;;;;5131091;27;20225;-75
2021/03/03 03:39:39;;;;;;;23.48;13.27;;;;;;;;;;5124978;27;20594;-76
2021/03/03 03:42:05;;;;;;;18.40;12.75;;;;;;;;;;5117064;27;20176;-76
2021/03/03 03:44:32;;;;;;;19.25;13.20;;;;;;;;;;5126749;27;20256;-76
2021/03/03 03:47:01;;;;;;;18.33;12.13;;;;;;;;;;5134255;27;20173;-76
2021/03/03 03:49:27;;;;;;;19.87;11.87;;;;;;;;;;5117949;27;20446;-75
2021/03/03 03:51:54;;;;;;;16.80;12.50;;;;;;;;;;5127626;27;20428;-76
2021/03/03 03:54:19;;;;;;;21.42;12.65;;;;;;;;;;5114531;28;20482;-76
2021/03/03 03:56:46;;;;;;;20.67;13.83;;;;;;;;;;5118973;27;20633;-76
2021/03/03 03:59:11;;;;;;;17.67;12.18;;;;;;;;;;5120276;27;20428;-77
2021/03/03 04:01:37;;;;;;;21.87;13.27;;;;;;;;;;5117233;27;20185;-76
2021/03/03 04:04:03;;;;;;;18.70;12.13;;;;;;;;;;5115280;27;20520;-76
2021/03/03 04:06:29;;;;;;;18.15;12.73;;;;;;;;;;5128152;27;20426;-77
2021/03/03 04:08:56;;;;;;;23.73;11.87;;;;;;;;;;5128293;27;20174;-77
2021/03/03 04:11:21;;;;;;;15.43;12.57;;;;;;;;;;5125505;27;20426;-80
2021/03/03 04:13:47;;;;;;;21.30;12.43;;;;;;;;;;5123562;27;20205;-78
2021/03/03 04:16:13;;;;;;;23.53;12.07;;;;;;;;;;5125454;27;20434;-77
2021/03/03 04:18:39;;;;;;;22.23;12.83;;;;;;;;;;5122987;27;20979;-76
2021/03/03 04:21:05;;;;;;;18.87;12.60;;;;;;;;;;5119336;27;20787;-75
2021/03/03 04:23:31;;;;;;;24.35;14.55;;;;;;;;;;5125832;27;20543;-75
2021/03/03 04:25:57;;;;;;;22.55;12.60;;;;;;;;;;5114699;27;20632;-76
2021/03/03 04:28:23;;;;;;;20.15;12.88;;;;;;;;;;5115667;27;20560;-76
2021/03/03 04:30:49;;;;;;;19.97;12.30;;;;;;;;;;5114993;27;20168;-77
2021/03/03 04:33:15;;;;;;;20.43;12.50;;;;;;;;;;5124679;27;21015;-76
2021/03/03 04:35:41;;;;;;;16.60;11.43;;;;;;;;;;5133717;27;20402;-76
2021/03/03 04:38:09;;;;;;;19.23;12.20;;;;;;;;;;5129927;27;20438;-75
2021/03/03 04:40:35;;;;;;;20.30;13.60;;;;;;;;;;5115499;27;20720;-77
2021/03/03 04:43:01;;;;;;;20.73;13.47;;;;;;;;;;5117896;27;20204;-79
2021/03/03 04:45:27;;;;;;;17.92;11.57;;;;;;;;;;5115945;27;20759;-77
2021/03/03 04:47:53;;;;;;;20.03;12.43;;;;;;;;;;5116674;28;20173;-77
2021/03/03 04:50:19;;;;;;;18.60;12.10;;;;;;;;;;5126868;27;20533;-76
2021/03/03 04:52:45;;;;;;;23.97;14.63;;;;;;;;;;5127854;27;20631;-75
2021/03/03 04:55:11;;;;;;;17.80;12.50;;;;;;;;;;5128583;28;20742;-74
2021/03/03 04:57:37;;;;;;;22.17;13.90;;;;;;;;;;5129736;28;20819;-77
2021/03/03 05:00:04;;;;;;;17.23;12.75;;;;;;;;;;5124706;28;20205;-75
2021/03/03 05:02:30;;;;;;;19.85;12.90;;;;;;;;;;5120693;28;20188;-76
2021/03/03 05:04:56;;;;;;;26.97;12.90;;;;;;;;;;5115643;28;20210;-77
2021/03/03 05:07:22;;;;;;;19.17;13.23;;;;;;;;;;5128300;28;20423;-80
2021/03/03 05:09:48;;;;;;;20.55;13.07;;;;;;;;;;5125012;28;20441;-76
2021/03/03 05:12:14;;;;;;;19.63;12.17;;;;;;;;;;5115568;28;20174;-76
2021/03/03 05:14:40;;;;;;;20.50;13.37;;;;;;;;;;5121899;28;20443;-78
2021/03/03 05:17:06;;;;;;;21.63;13.23;;;;;;;;;;5113808;28;20475;-77
2021/03/03 05:19:32;;;;;;;23.57;13.60;;;;;;;;;;5133550;28;20630;-77
2021/03/03 05:21:58;;;;;;;15.65;12.23;;;;;;;;;;5133248;28;20474;-79
2021/03/03 05:24:24;;;;;;;19.70;12.93;;;;;;;;;;5118224;28;20215;-78
2021/03/03 05:26:50;;;;;;;21.20;12.18;;;;;;;;;;5133445;28;20442;-79
2021/03/03 05:29:17;;;;;;;24.35;11.95;;;;;;;;;;5129668;28;20180;-79
2021/03/03 05:31:43;;;;;;;25.95;13.63;;;;;;;;;;5133272;28;20160;-76
2021/03/03 05:34:09;;;;;;;20.90;12.10;;;;;;;;;;5131894;28;20711;-77
2021/03/03 05:36:35;;;;;;;25.20;13.15;;;;;;;;;;5132182;27;20426;-75
2021/03/03 05:39:01;;;;;;;19.83;13.43;;;;;;;;;;5143218;27;20653;-76
2021/03/03 05:41:27;;;;;;;18.30;12.40;;;;;;;;;;5127719;27;20435;-79
2021/03/03 05:43:53;;;;;;;17.75;12.13;;;;;;;;;;5116800;28;20205;-79
2021/03/03 05:46:19;;;;;;;16.92;12.95;;;;;;;;;;5127301;27;20268;-78
2021/03/03 05:49:00;;;;;;;16.00;12.10;;;;;;;;;;5117018;28;20192;-79
2021/03/03 05:51:27;;;;;;;24.67;13.80;;;;;;;;;;5118799;27;20175;-75
2021/03/03 05:53:53;;;;;;;17.48;12.38;;;;;;;;;;5120354;27;20221;-75
2021/03/03 05:56:23;;;;;;;30.98;13.93;;;;;;;;;;5124143;27;20169;-76
2021/03/03 05:58:49;;;;;;;22.60;13.02;;;;;;;;;;5119666;27;20585;-76
2021/03/03 06:01:16;;;;;;;21.48;12.85;;;;;;;;;;5130334;27;20731;-76
2021/03/03 06:03:42;;;;;;;26.67;14.00;;;;;;;;;;5121172;27;20208;-79
2021/03/03 06:06:08;;;;;;;21.05;13.73;;;;;;;;;;5128248;27;20198;-80
2021/03/03 06:08:34;;;;;;;21.20;12.40;;;;;;;;;;5125687;27;20187;-83
2021/03/03 06:11:00;;;;;;;21.70;13.68;;;;;;;;;;5125884;27;20493;-80
2021/03/03 06:13:26;;;;;;;24.77;13.32;;;;;;;;;;5121132;27;20186;-82
2021/03/03 06:15:52;;;;;;;18.37;12.57;;;;;;;;;;5121823;27;20190;-81
2021/03/03 06:18:19;;;;;;;20.48;12.35;;;;;;;;;;5121773;27;20511;-77
2021/03/03 06:20:50;;;;;;;16.67;12.20;;;;;;;;;;5122528;27;20180;-81
2021/03/03 06:23:17;;;;;;;17.30;12.75;;;;;;;;;;5122794;27;20207;-79
2021/03/03 06:25:43;;;;;;;16.63;13.50;;;;;;;;;;5127392;27;20196;-79
2021/03/03 06:28:10;;;;;;;18.27;13.38;;;;;;;;;;5122968;27;20207;-79
2021/03/03 06:30:36;;;;;;;24.02;14.05;;;;;;;;;;5107330;27;20530;-79
2021/03/03 06:33:04;;;;;;;19.40;14.57;;;;;;;;;;5119067;27;20300;-81
2021/03/03 06:35:36;;;;;;;23.13;14.85;;;;;;;;;;5128185;27;20189;-81
2021/03/03 06:38:02;;;;;;;20.45;13.27;;;;;;;;;;5125171;27;20330;-81
2021/03/03 06:40:28;;;;;;;21.10;14.25;;;;;;;;;;5121385;27;20194;-81
2021/03/03 06:42:55;;;;;;;20.00;12.93;;;;;;;;;;5120946;27;20196;-79
2021/03/03 06:45:30;;;;;;;21.02;15.43;;;;;;;;;;5117949;27;20667;-80
2021/03/03 06:47:57;;;;;;;18.02;12.77;;;;;;;;;;5118699;27;20181;-82
2021/03/03 06:50:36;;;;;;;19.50;13.40;;;;;;;;;;5111151;27;20631;-80
2021/03/03 06:53:02;;;;;;;17.25;13.52;;;;;;;;;;5115898;27;20222;-81
2021/03/03 06:55:47;;;;;;;19.83;14.38;;;;;;;;;;5116412;27;20193;-82
2021/03/03 06:58:23;;;;;;;31.52;15.60;;;;;;;;;;5114244;27;20192;-80
2021/03/03 07:00:49;;;;;;;18.23;13.10;;;;;;;;;;5106385;27;20194;-78
2021/03/03 07:03:25;;;;;;;28.33;14.82;;;;;;;;;;5111226;27;20292;-81
2021/03/03 07:05:51;;;;;;;22.10;13.65;;;;;;;;;;5111799;27;20655;-80
2021/03/03 07:08:18;;;;;;;32.50;21.13;;;;;;;;;;5116424;27;20264;-82
2021/03/03 07:10:44;;;;;;;55.03;27.75;;;;;;;;;;5113069;27;20562;-80
2021/03/03 07:13:10;;;;;;;22.30;14.70;;;;;;;;;;5115795;27;20291;-80
2021/03/03 07:15:36;;;;;;;24.33;13.68;;;;;;;;;;5118663;27;20436;-76
2021/03/03 07:18:02;;;;;;;19.77;13.45;;;;;;;;;;5122246;27;20196;-79
2021/03/03 07:20:28;;;;;;;19.63;14.68;;;;;;;;;;5114999;27;20208;-79
2021/03/03 07:22:58;;;;;;;17.73;14.10;;;;;;;;;;5131321;27;20203;-79
2021/03/03 07:25:24;;;;;;;20.15;14.75;;;;;;;;;;5119547;27;20447;-79
2021/03/03 07:27:51;;;;;;;27.10;15.25;;;;;;;;;;5112326;27;20185;-81
2021/03/03 07:30:18;;;;;;;21.85;14.38;;;;;;;;;;5121003;27;20193;-78
2021/03/03 07:32:44;;;;;;;19.80;14.05;;;;;;;;;;5114612;27;20182;-82
2021/03/03 07:35:11;;;;;;;24.55;15.18;;;;;;;;;;5114444;27;20177;-77
2021/03/03 07:37:41;;;;;;;24.77;15.82;;;;;;;;;;5117410;27;20287;-81
2021/03/03 07:40:08;;;;;;;22.27;14.13;;;;;;;;;;5112858;27;20271;-85
2021/03/03 07:42:34;;;;;;;31.13;15.77;;;;;;;;;;5113767;27;20237;-83
2021/03/03 07:45:01;;;;;;;29.23;15.98;;;;;;;;;;5114385;27;20270;-86
2021/03/03 07:47:29;;;;;;;32.50;16.40;;;;;;;;;;5119230;27;20198;-82
2021/03/03 07:49:58;;;;;;;22.85;14.27;;;;;;;;;;5118069;27;20446;-85
2021/03/03 07:52:24;;;;;;;39.40;14.18;;;;;;;;;;5118954;27;20542;-81
2021/03/03 07:54:50;;;;;;;33.58;15.00;;;;;;;;;;5117080;27;20244;-79
2021/03/03 07:57:17;;;;;;;32.03;16.40;;;;;;;;;;5119051;27;20190;-76
2021/03/03 07:59:43;;;;;;;35.25;16.88;;;;;;;;;;5115881;27;20435;-80
2021/03/03 08:02:10;;;;;;;26.17;15.48;;;;;;;;;;5118140;27;20208;-75
2021/03/03 08:04:40;;;;;;;26.70;15.47;;;;;;;;;;5124407;27;20324;-85
2021/03/03 08:07:14;;;;;;;25.43;16.10;;;;;;;;;;5115940;27;20526;-80
2021/03/03 08:09:40;;;;;;;24.33;14.73;;;;;;;;;;5118654;27;20487;-85
2021/03/03 08:12:06;;;;;;;20.50;13.70;;;;;;;;;;5122062;27;20245;-82
2021/03/03 08:14:37;;;;;;;21.20;14.23;;;;;;;;;;5105123;27;20450;-80
2021/03/03 08:17:04;;;;;;;27.67;14.48;;;;;;;;;;5105523;27;20451;-83
2021/03/03 08:19:49;;;;;;;21.92;14.88;;;;;;;;;;5104599;27;20184;-82
2021/03/03 08:22:15;;;;;;;24.13;14.87;;;;;;;;;;5110842;27;20196;-81
2021/03/03 08:24:41;;;;;;;21.03;14.97;;;;;;;;;;5111762;27;20600;-81
2021/03/03 08:27:30;;;;;;;19.53;13.20;;;;;;;;;;5111297;27;20539;-81
2021/03/03 08:30:12;;;;;;;23.60;14.07;;;;;;;;;;5100090;27;20457;-82
2021/03/03 08:32:39;;;;;;;27.80;14.73;;;;;;;;;;5111710;27;20216;-78
2021/03/03 08:35:05;;;;;;;25.43;12.90;;;;;;;;;;5111817;27;21007;-80
2021/03/03 08:37:32;;;;;;;32.07;19.63;;;;;;;;;;5110010;27;20499;-81
2021/03/03 08:39:59;;;;;;;27.10;14.40;;;;;;;;;;5109626;27;21030;-83
2021/03/03 08:42:30;;;;;;;21.10;13.40;;;;;;;;;;5113249;27;20436;-78
2021/03/03 08:44:59;;;;;;;27.17;16.40;;;;;;;;;;5092582;27;20579;-82
2021/03/03 08:47:43;;;;;;;24.23;14.50;;;;;;;;;;5107750;27;20439;-79
2021/03/03 08:50:29;;;;;;;30.17;16.60;;;;;;;;;;5111401;28;20786;-81
2021/03/03 08:53:17;;;;;;;31.83;17.00;;;;;;;;;;5112636;27;20437;-78
2021/03/03 08:55:43;;;;;;;33.70;15.80;;;;;;;;;;5112135;27;20442;-78
2021/03/03 08:58:29;;;;;;;28.50;16.40;;;;;;;;;;5112962;28;20981;-78
2021/03/03 09:00:55;;;;;;;24.60;14.40;;;;;;;;;;5109154;28;20969;-79
2021/03/03 09:03:21;;;;;;;35.07;15.83;;;;;;;;;;5107820;28;20515;-76
2021/03/03 09:05:48;;;;;;;28.13;15.50;;;;;;;;;;5110926;28;20933;-80
2021/03/03 09:08:20;;;;;;;25.23;14.47;;;;;;;;;;5115628;28;20445;-77
2021/03/03 09:10:46;;;;;;;19.50;14.53;;;;;;;;;;5116119;27;20450;-82
2021/03/03 09:13:28;;;;;;;23.17;15.00;;;;;;;;;;5114848;27;20450;-79
2021/03/03 09:16:08;;;;;;;24.13;14.47;;;;;;;;;;5100586;27;20444;-81
2021/03/03 09:18:37;;;;;;;26.90;16.57;;;;;;;;;;5115259;27;20635;-81
2021/03/03 09:21:10;;;;;;;21.60;14.60;;;;;;;;;;5120252;27;20427;-80
2021/03/03 09:23:36;;;;;;;25.03;15.33;;;;;;;;;;5130030;27;20492;-80
2021/03/03 09:26:02;;;;;;;25.37;14.77;;;;;;;;;;5122057;27;20470;-79
2021/03/03 09:28:43;;;;;;;20.80;14.60;;;;;;;;;;5114263;27;20443;-78
2021/03/03 09:31:09;;;;;;;32.73;16.03;;;;;;;;;;5097656;27;20489;-77
2021/03/03 09:33:35;;;;;;;29.67;14.50;;;;;;;;;;5119342;27;20438;-79
2021/03/03 09:36:01;;;;;;;23.43;15.13;;;;;;;;;;5105678;27;20443;-78
2021/03/03 09:38:30;;;;;;;24.10;15.57;;;;;;;;;;5125779;27;20526;-76
2021/03/03 09:40:56;;;;;;;22.07;15.53;;;;;;;;;;5128278;27;20430;-76
2021/03/03 09:43:22;;;;;;;30.53;17.03;;;;;;;;;;5124924;27;20479;-76
2021/03/03 09:45:54;;;;;;;32.07;16.00;;;;;;;;;;5119276;27;20468;-80
2021/03/03 09:48:26;;;;;;;25.67;16.30;;;;;;;;;;5125930;27;20448;-80
2021/03/03 09:50:52;;;;;;;23.30;16.50;;;;;;;;;;5121849;27;20509;-75
2021/03/03 09:53:18;;;;;;;20.70;16.30;;;;;;;;;;5122475;27;20441;-81
2021/03/03 09:55:44;;;;;;;31.60;17.33;;;;;;;;;;5121613;27;20954;-77
2021/03/03 09:58:10;;;;;;;19.97;15.10;;;;;;;;;;5120362;27;20446;-72
2021/03/03 10:00:40;;;;;;;21.90;15.07;;;;;;;;;;5123178;27;20518;-78
2021/03/03 10:03:07;;;;;;;22.80;15.43;;;;;;;;;;5103492;27;20452;-82
2021/03/03 10:05:34;;;;;;;18.50;15.30;;;;;;;;;;5123651;27;21017;-79
2021/03/03 10:08:01;;;;;;;28.43;15.97;;;;;;;;;;5103310;27;20452;-79
2021/03/03 10:10:28;;;;;;;25.60;14.93;;;;;;;;;;5108784;27;20451;-80
2021/03/03 10:12:54;;;;;;;21.73;16.13;;;;;;;;;;5132560;27;20442;-83
2021/03/03 10:15:39;;;;;;;24.43;16.43;;;;;;;;;;5131194;27;20444;-82
2021/03/03 10:18:09;;;;;;;23.20;15.63;;;;;;;;;;5128007;27;20455;-87
2021/03/03 10:20:47;;;;;;;25.10;16.50;;;;;;;;;;5125599;27;20441;-87
2021/03/03 10:23:15;;;;;;;24.20;16.03;;;;;;;;;;5127349;27;20443;-83
2021/03/03 10:25:45;;;;;;;28.43;18.60;;;;;;;;;;5123946;27;20454;-85
2021/03/03 10:28:25;;;;;;;20.10;15.60;;;;;;;;;;5131203;27;20455;-83
2021/03/03 10:30:52;;;;;;;30.63;16.67;;;;;;;;;;5127489;27;20442;-86
2021/03/03 10:33:38;;;;;;;30.70;16.90;;;;;;;;;;5122252;27;20824;-80
2021/03/03 10:36:05;;;;;;;25.90;15.67;;;;;;;;;;5121660;27;20473;-81
2021/03/03 10:38:35;;;;;;;30.57;17.53;;;;;;;;;;5125016;27;20875;-81
2021/03/03 10:41:02;;;;;;;23.67;17.13;;;;;;;;;;5123723;27;20445;-84
2021/03/03 10:43:29;;;;;;;31.40;16.07;;;;;;;;;;5123506;27;20473;-81
2021/03/03 10:46:08;;;;;;;26.27;19.43;;;;;;;;;;5124370;27;20528;-87
2021/03/03 10:48:34;;;;;;;21.87;18.63;;;;;;;;;;5121560;27;20764;-85
2021/03/03 10:51:02;;;;;;;24.40;16.10;;;;;;;;;;5126326;27;20442;-79
2021/03/03 10:53:46;;;;;;;24.23;17.53;;;;;;;;;;5125959;27;20438;-75
2021/03/03 10:56:28;;;;;;;23.07;15.30;;;;;;;;;;5120524;27;20439;-82
2021/03/03 10:58:55;;;;;;;23.00;16.87;;;;;;;;;;5121846;27;20442;-82
2021/03/03 11:01:21;;;;;;;21.97;15.77;;;;;;;;;;5122950;27;20511;-84
2021/03/03 11:03:52;;;;;;;21.67;15.37;;;;;;;;;;5123412;27;21184;-79
2021/03/03 11:06:18;;;;;;;24.30;16.57;;;;;;;;;;5125409;27;20442;-84
2021/03/03 11:08:44;;;;;;;20.03;15.63;;;;;;;;;;5106077;27;20461;-72
2021/03/03 11:11:10;;;;;;;22.60;16.30;;;;;;;;;;5129297;27;20447;-83
2021/03/03 11:13:36;;;;;;;26.00;17.70;;;;;;;;;;5124866;27;20444;-85
2021/03/03 11:16:03;;;;;;;20.40;15.63;;;;;;;;;;5129009;27;20791;-83
2021/03/03 11:18:29;;;;;;;23.30;16.93;;;;;;;;;;5130111;27;20469;-79
2021/03/03 11:20:55;;;;;;;26.07;19.10;;;;;;;;;;5119530;27;20436;-80
2021/03/03 11:23:21;;;;;;;20.80;15.97;;;;;;;;;;5132289;27;20821;-74
2021/03/03 11:25:47;;;;;;;21.03;15.20;;;;;;;;;;5133973;27;20438;-73
2021/03/03 11:33:56;;;;;;;43.37;18.10;;;;;;;;;;5020207;22;20546;-74
2021/03/03 11:36:23;;;;;;;24.03;16.20;;;;;;;;;;5009264;28;20476;-81
2021/03/03 11:38:49;;;;;;;24.47;17.37;;;;;;;;;;5036732;28;20467;-79
2021/03/03 11:41:15;;;;;;;20.67;15.80;;;;;;;;;;5029512;28;20447;-75
2021/03/03 11:43:41;;;;;;;27.07;16.50;;;;;;;;;;5031445;28;20494;-75
2021/03/03 11:46:07;;;;;;;27.77;15.77;;;;;;;;;;5029347;28;20448;-74
2021/03/03 11:48:34;;;;;;;20.53;16.60;;;;;;;;;;5026153;28;20941;-81
2021/03/03 11:51:00;;;;;;;20.40;16.80;;;;;;;;;;5030437;28;20470;-80
2021/03/03 11:53:26;;;;;;;26.20;17.40;;;;;;;;;;5029781;28;20471;-75
2021/03/03 11:55:52;;;;;;;26.07;19.43;;;;;;;;;;5029387;28;20882;-75
2021/03/03 11:58:18;;;;;;;19.97;16.93;;;;;;;;;;5028985;28;20451;-83
2021/03/03 12:00:44;;;;;;;26.67;16.40;;;;;;;;;;5029200;28;20751;-82
2021/03/03 12:03:10;;;;;;;24.03;15.93;;;;;;;;;;5027878;28;20447;-73
2021/03/03 12:05:36;;;;;;;22.23;15.13;;;;;;;;;;5030236;28;20470;-75
2021/03/03 12:08:04;;;;;;;18.70;15.00;;;;;;;;;;5029135;28;21064;-75
2021/03/03 12:10:31;;;;;;;26.53;17.07;;;;;;;;;;5024594;28;20545;-77
2021/03/03 12:12:57;;;;;;;20.47;14.50;;;;;;;;;;5020479;28;20491;-75
2021/03/03 12:15:23;;;;;;;27.23;18.60;;;;;;;;;;5016347;28;20451;-73
2021/03/03 12:17:49;;;;;;;18.87;14.80;;;;;;;;;;5030881;28;20428;-77
2021/03/03 12:20:15;;;;;;;19.93;15.37;;;;;;;;;;5012921;28;20548;-79
2021/03/03 12:22:41;;;;;;;21.30;15.30;;;;;;;;;;5029343;28;20431;-80
2021/03/03 12:25:07;;;;;;;19.40;15.60;;;;;;;;;;5032244;28;20601;-77
2021/03/03 12:27:33;;;;;;;20.10;16.50;;;;;;;;;;5027611;28;21065;-77
2021/03/03 12:29:59;;;;;;;20.00;15.53;;;;;;;;;;5027950;28;20504;-75
2021/03/03 12:32:25;;;;;;;19.10;16.77;;;;;;;;;;5025730;28;20471;-75
2021/03/03 12:34:51;;;;;;;21.43;16.40;;;;;;;;;;5006605;28;20515;-78
2021/03/03 12:37:17;;;;;;;27.53;18.37;;;;;;;;;;5017318;28;21020;-77
2021/03/03 12:39:43;;;;;;;25.03;16.57;;;;;;;;;;5017391;28;20441;-79
2021/03/03 12:42:11;;;;;;;29.50;16.33;;;;;;;;;;5008200;28;20444;-82
2021/03/03 12:44:38;;;;;;;21.13;16.70;;;;;;;;;;5008483;28;20862;-78
2021/03/03 12:47:05;;;;;;;27.70;16.97;;;;;;;;;;5009930;28;20436;-82
2021/03/03 12:49:31;;;;;;;26.43;18.00;;;;;;;;;;5011444;28;20452;-83
2021/03/03 12:51:57;;;;;;;24.97;18.10;;;;;;;;;;5010896;28;20802;-84
2021/03/03 12:54:23;;;;;;;27.60;16.83;;;;;;;;;;5010387;28;20448;-79
2021/03/03 12:56:50;;;;;;;21.93;16.07;;;;;;;;;;5010062;28;20480;-82
2021/03/03 12:59:16;;;;;;;27.63;15.77;;;;;;;;;;5010158;28;20436;-84
2021/03/03 13:01:42;;;;;;;18.47;15.40;;;;;;;;;;5009953;28;20424;-76
2021/03/03 13:04:08;;;;;;;22.40;16.50;;;;;;;;;;5008339;28;20530;-74
2021/03/03 13:06:34;;;;;;;28.20;16.43;;;;;;;;;;4990434;28;20437;-83
2021/03/03 13:09:00;;;;;;;22.93;17.43;;;;;;;;;;5025325;28;20823;-75
2021/03/03 13:11:25;;;;;;;30.13;17.33;;;;;;;;;;5009876;28;20927;-73
2021/03/03 13:13:52;;;;;;;30.00;16.97;;;;;;;;;;5009751;28;20444;-73
2021/03/03 13:16:18;;;;;;;20.13;15.07;;;;;;;;;;5009932;28;20441;-76
2021/03/03 13:18:45;;;;;;;27.07;17.40;;;;;;;;;;5009166;28;20884;-74
2021/03/03 13:21:12;;;;;;;20.00;16.03;;;;;;;;;;5009942;28;20583;-74
2021/03/03 13:23:38;;;;;;;23.67;17.63;;;;;;;;;;5009141;28;20461;-75
2021/03/03 13:26:04;;;;;;;32.43;17.73;;;;;;;;;;5010320;28;20444;-73
2021/03/03 13:28:30;;;;;;;26.43;16.50;;;;;;;;;;5009500;28;21009;-74
2021/03/03 13:30:56;;;;;;;29.90;15.70;;;;;;;;;;5009747;28;20460;-74
2021/03/03 13:33:22;;;;;;;22.70;15.03;;;;;;;;;;5014118;28;20843;-77
2021/03/03 13:35:48;;;;;;;34.93;15.73;;;;;;;;;;5029158;28;20470;-72
2021/03/03 13:38:19;;;;;;;25.20;16.10;;;;;;;;;;5029785;28;20518;-80
2021/03/03 13:40:45;;;;;;;33.97;16.60;;;;;;;;;;5017294;28;20459;-83
2021/03/03 13:43:12;;;;;;;33.87;17.63;;;;;;;;;;5040727;28;20470;-76
2021/03/03 13:45:38;;;;;;;23.07;16.33;;;;;;;;;;5041811;28;20484;-81
2021/03/03 13:48:04;;;;;;;31.20;14.77;;;;;;;;;;5022710;28;20439;-74
2021/03/03 13:50:30;;;;;;;22.30;16.27;;;;;;;;;;5031640;28;20506;-77
2021/03/03 13:52:56;;;;;;;21.97;15.37;;;;;;;;;;5030685;28;20516;-76
2021/03/03 13:55:22;;;;;;;24.07;15.97;;;;;;;;;;5027397;28;21295;-76
2021/03/03 13:57:50;;;;;;;21.83;15.90;;;;;;;;;;5019204;28;20505;-79
2021/03/03 14:00:16;;;;;;;20.80;13.83;;;;;;;;;;5022195;28;20448;-79
2021/03/03 14:02:42;;;;;;;19.17;13.20;;;;;;;;;;5018805;28;20482;-78
2021/03/03 14:05:08;;;;;;;26.23;15.33;;;;;;;;;;5029180;28;20479;-75
2021/03/03 14:07:34;;;;;;;21.20;14.93;;;;;;;;;;5038595;28;20439;-81
2021/03/03 14:10:00;;;;;;;19.90;14.03;;;;;;;;;;5038561;28;20459;-81
2021/03/03 14:12:27;;;;;;;28.73;15.93;;;;;;;;;;5039371;28;20450;-86
2021/03/03 14:14:53;;;;;;;17.50;13.87;;;;;;;;;;5035335;28;20482;-84
2021/03/03 14:17:19;;;;;;;17.23;13.40;;;;;;;;;;5036977;28;21148;-84
2021/03/03 14:19:45;;;;;;;17.07;14.47;;;;;;;;;;5026565;28;20450;-77
2021/03/03 14:22:11;;;;;;;22.37;15.33;;;;;;;;;;5037599;28;20536;-84
2021/03/03 14:24:37;;;;;;;21.47;15.53;;;;;;;;;;5038809;28;20972;-86